sensor_id;sensor_type;location;lat;lon;timestamp;P1;durP1;ratioP1;P2;durP2;ratioP2
52480;SDS011;38393;52.404;13.532;2023-05-10T00:02:23;9.33;;;5.20;;
52480;SDS011;38393;52.404;13.532;2023-05-10T00:04:49;7.33;;;4.60;;
52480;SDS011;38393;52.404;13.532;2023-05-10T00:07:14;9.67;;;5.63;;
52480;SDS011;38393;52.404;13.532;2023-05-10T00:09:42;9.43;;;5.33;;
52480;SDS011;38393;52.404;13.532;2023-05-10T00:12:07;8.27;;;5.30;;
52480;SDS011;38393;52.404;13.532;2023-05-10T00:14:33;10.83;;;5.20;;
52480;SDS011;38393;52.404;13.532;2023-05-10T00:16:58;8.57;;;5.37;;
52480;SDS011;38393;52.404;13.532;2023-05-10T00:19:24;9.53;;;5.50;;
52480;SDS011;38393;52.404;13.532;2023-05-10T00:21:49;8.53;;;4.97;;
52480;SDS011;38393;52.404;13.532;2023-05-10T00:24:15;9.03;;;5.40;;
52480;SDS011;38393;52.404;13.532;2023-05-10T00:26:40;9.73;;;5.27;;
52480;SDS011;38393;52.404;13.532;2023-05-10T00:29:07;9.00;;;5.40;;
52480;SDS011;38393;52.404;13.532;2023-05-10T00:31:32;8.70;;;4.90;;
52480;SDS011;38393;52.404;13.532;2023-05-10T00:33:58;9.27;;;5.57;;
52480;SDS011;38393;52.404;13.532;2023-05-10T00:36:23;7.27;;;4.63;;
52480;SDS011;38393;52.404;13.532;2023-05-10T00:38:49;9.80;;;5.33;;
52480;SDS011;38393;52.404;13.532;2023-05-10T00:41:14;9.03;;;5.47;;
52480;SDS011;38393;52.404;13.532;2023-05-10T00:43:40;9.43;;;5.80;;
52480;SDS011;38393;52.404;13.532;2023-05-10T00:46:06;8.57;;;5.10;;
52480;SDS011;38393;52.404;13.532;2023-05-10T00:48:32;11.00;;;5.63;;
52480;SDS011;38393;52.404;13.532;2023-05-10T00:50:58;8.90;;;5.57;;
52480;SDS011;38393;52.404;13.532;2023-05-10T00:53:24;11.67;;;5.83;;
52480;SDS011;38393;52.404;13.532;2023-05-10T00:55:49;9.30;;;5.57;;
52480;SDS011;38393;52.404;13.532;2023-05-10T00:58:15;10.87;;;6.07;;
52480;SDS011;38393;52.404;13.532;2023-05-10T01:00:42;10.97;;;5.80;;
52480;SDS011;38393;52.404;13.532;2023-05-10T01:03:09;8.73;;;5.53;;
52480;SDS011;38393;52.404;13.532;2023-05-10T01:05:36;9.47;;;5.87;;
52480;SDS011;38393;52.404;13.532;2023-05-10T01:08:02;9.30;;;5.67;;
52480;SDS011;38393;52.404;13.532;2023-05-10T01:10:27;10.60;;;6.03;;
52480;SDS011;38393;52.404;13.532;2023-05-10T01:12:53;8.03;;;5.40;;
52480;SDS011;38393;52.404;13.532;2023-05-10T01:15:19;8.43;;;5.83;;
52480;SDS011;38393;52.404;13.532;2023-05-10T01:17:46;11.77;;;6.17;;
52480;SDS011;38393;52.404;13.532;2023-05-10T01:20:13;10.00;;;6.17;;
52480;SDS011;38393;52.404;13.532;2023-05-10T01:25:18;9.00;;;5.63;;
52480;SDS011;38393;52.404;13.532;2023-05-10T01:33:19;9.70;;;6.10;;
52480;SDS011;38393;52.404;13.532;2023-05-10T01:41:28;9.73;;;6.00;;
52480;SDS011;38393;52.404;13.532;2023-05-10T01:44:09;10.23;;;6.30;;
52480;SDS011;38393;52.404;13.532;2023-05-10T01:46:43;12.13;;;5.83;;
52480;SDS011;38393;52.404;13.532;2023-05-10T01:49:20;9.13;;;5.83;;
52480;SDS011;38393;52.404;13.532;2023-05-10T01:51:52;9.53;;;5.67;;
52480;SDS011;38393;52.404;13.532;2023-05-10T01:54:21;10.17;;;5.97;;
52480;SDS011;38393;52.404;13.532;2023-05-10T01:56:50;11.47;;;6.20;;
52480;SDS011;38393;52.404;13.532;2023-05-10T01:59:21;8.20;;;5.60;;
52480;SDS011;38393;52.404;13.532;2023-05-10T02:01:48;10.67;;;6.23;;
52480;SDS011;38393;52.404;13.532;2023-05-10T02:04:16;10.10;;;5.83;;
52480;SDS011;38393;52.404;13.532;2023-05-10T02:06:44;9.93;;;5.90;;
52480;SDS011;38393;52.404;13.532;2023-05-10T02:09:11;9.27;;;6.00;;
52480;SDS011;38393;52.404;13.532;2023-05-10T02:11:38;9.20;;;5.67;;
52480;SDS011;38393;52.404;13.532;2023-05-10T02:14:07;9.30;;;5.83;;
52480;SDS011;38393;52.404;13.532;2023-05-10T02:16:36;9.37;;;6.00;;
52480;SDS011;38393;52.404;13.532;2023-05-10T02:19:03;8.73;;;5.47;;
52480;SDS011;38393;52.404;13.532;2023-05-10T02:21:30;9.30;;;5.50;;
52480;SDS011;38393;52.404;13.532;2023-05-10T02:23:57;10.07;;;5.93;;
52480;SDS011;38393;52.404;13.532;2023-05-10T02:26:25;11.97;;;6.20;;
52480;SDS011;38393;52.404;13.532;2023-05-10T02:28:51;10.90;;;5.87;;
52480;SDS011;38393;52.404;13.532;2023-05-10T02:31:19;10.87;;;6.03;;
52480;SDS011;38393;52.404;13.532;2023-05-10T02:33:46;10.70;;;5.90;;
52480;SDS011;38393;52.404;13.532;2023-05-10T02:36:13;11.87;;;5.70;;
52480;SDS011;38393;52.404;13.532;2023-05-10T02:38:40;10.43;;;6.07;;
52480;SDS011;38393;52.404;13.532;2023-05-10T02:41:05;9.73;;;5.30;;
52480;SDS011;38393;52.404;13.532;2023-05-10T02:43:33;11.40;;;5.63;;
52480;SDS011;38393;52.404;13.532;2023-05-10T02:46:00;10.30;;;5.30;;
52480;SDS011;38393;52.404;13.532;2023-05-10T02:48:26;10.10;;;5.70;;
52480;SDS011;38393;52.404;13.532;2023-05-10T02:50:52;9.07;;;5.30;;
52480;SDS011;38393;52.404;13.532;2023-05-10T02:53:23;9.47;;;6.10;;
52480;SDS011;38393;52.404;13.532;2023-05-10T02:55:57;9.60;;;5.87;;
52480;SDS011;38393;52.404;13.532;2023-05-10T02:58:25;9.23;;;5.63;;
52480;SDS011;38393;52.404;13.532;2023-05-10T03:00:51;9.40;;;5.23;;
52480;SDS011;38393;52.404;13.532;2023-05-10T03:03:16;9.77;;;5.47;;
52480;SDS011;38393;52.404;13.532;2023-05-10T03:05:42;10.10;;;5.30;;
52480;SDS011;38393;52.404;13.532;2023-05-10T03:08:08;10.20;;;5.57;;
52480;SDS011;38393;52.404;13.532;2023-05-10T03:10:33;8.83;;;5.63;;
52480;SDS011;38393;52.404;13.532;2023-05-10T03:13:14;7.60;;;4.87;;
52480;SDS011;38393;52.404;13.532;2023-05-10T03:15:56;9.67;;;5.20;;
52480;SDS011;38393;52.404;13.532;2023-05-10T03:18:33;10.23;;;5.60;;
52480;SDS011;38393;52.404;13.532;2023-05-10T03:21:08;8.87;;;5.17;;
52480;SDS011;38393;52.404;13.532;2023-05-10T03:23:41;8.83;;;5.20;;
52480;SDS011;38393;52.404;13.532;2023-05-10T03:26:12;13.43;;;5.23;;
52480;SDS011;38393;52.404;13.532;2023-05-10T03:28:42;8.20;;;5.13;;
52480;SDS011;38393;52.404;13.532;2023-05-10T03:31:08;8.20;;;5.30;;
52480;SDS011;38393;52.404;13.532;2023-05-10T03:33:34;10.40;;;5.03;;
52480;SDS011;38393;52.404;13.532;2023-05-10T03:36:00;11.50;;;5.30;;
52480;SDS011;38393;52.404;13.532;2023-05-10T03:38:25;8.10;;;5.03;;
52480;SDS011;38393;52.404;13.532;2023-05-10T03:40:51;11.73;;;5.40;;
52480;SDS011;38393;52.404;13.532;2023-05-10T03:43:16;11.33;;;5.23;;
52480;SDS011;38393;52.404;13.532;2023-05-10T03:45:42;7.30;;;4.57;;
52480;SDS011;38393;52.404;13.532;2023-05-10T03:48:07;9.20;;;5.10;;
52480;SDS011;38393;52.404;13.532;2023-05-10T03:50:33;9.77;;;5.33;;
52480;SDS011;38393;52.404;13.532;2023-05-10T03:52:58;9.80;;;4.83;;
52480;SDS011;38393;52.404;13.532;2023-05-10T03:55:24;8.93;;;5.13;;
52480;SDS011;38393;52.404;13.532;2023-05-10T03:57:49;9.10;;;5.70;;
52480;SDS011;38393;52.404;13.532;2023-05-10T04:00:15;10.67;;;5.80;;
52480;SDS011;38393;52.404;13.532;2023-05-10T04:02:41;9.07;;;5.07;;
52480;SDS011;38393;52.404;13.532;2023-05-10T04:05:06;7.53;;;5.00;;
52480;SDS011;38393;52.404;13.532;2023-05-10T04:07:32;8.57;;;4.50;;
52480;SDS011;38393;52.404;13.532;2023-05-10T04:09:57;7.80;;;4.63;;
52480;SDS011;38393;52.404;13.532;2023-05-10T04:12:23;7.47;;;4.77;;
52480;SDS011;38393;52.404;13.532;2023-05-10T04:14:49;8.30;;;5.20;;
52480;SDS011;38393;52.404;13.532;2023-05-10T04:17:14;8.83;;;5.40;;
52480;SDS011;38393;52.404;13.532;2023-05-10T04:19:40;8.47;;;4.70;;
52480;SDS011;38393;52.404;13.532;2023-05-10T04:22:05;7.30;;;4.53;;
52480;SDS011;38393;52.404;13.532;2023-05-10T04:24:31;9.10;;;4.60;;
52480;SDS011;38393;52.404;13.532;2023-05-10T04:26:56;10.50;;;5.10;;
52480;SDS011;38393;52.404;13.532;2023-05-10T04:29:21;9.20;;;4.53;;
52480;SDS011;38393;52.404;13.532;2023-05-10T04:31:47;7.43;;;4.63;;
52480;SDS011;38393;52.404;13.532;2023-05-10T04:34:13;8.73;;;4.73;;
52480;SDS011;38393;52.404;13.532;2023-05-10T04:36:39;8.13;;;4.80;;
52480;SDS011;38393;52.404;13.532;2023-05-10T04:39:04;6.73;;;4.50;;
52480;SDS011;38393;52.404;13.532;2023-05-10T04:41:30;7.47;;;4.50;;
52480;SDS011;38393;52.404;13.532;2023-05-10T04:43:55;7.97;;;4.90;;
52480;SDS011;38393;52.404;13.532;2023-05-10T04:46:21;7.17;;;4.30;;
52480;SDS011;38393;52.404;13.532;2023-05-10T04:48:46;9.73;;;4.40;;
52480;SDS011;38393;52.404;13.532;2023-05-10T04:51:12;6.47;;;4.13;;
52480;SDS011;38393;52.404;13.532;2023-05-10T04:53:38;7.70;;;4.27;;
52480;SDS011;38393;52.404;13.532;2023-05-10T04:56:03;8.57;;;4.23;;
52480;SDS011;38393;52.404;13.532;2023-05-10T04:58:29;7.13;;;4.23;;
52480;SDS011;38393;52.404;13.532;2023-05-10T05:00:55;6.70;;;4.40;;
52480;SDS011;38393;52.404;13.532;2023-05-10T05:03:20;8.13;;;4.60;;
52480;SDS011;38393;52.404;13.532;2023-05-10T05:05:47;6.03;;;3.80;;
52480;SDS011;38393;52.404;13.532;2023-05-10T05:08:12;9.67;;;4.50;;
52480;SDS011;38393;52.404;13.532;2023-05-10T05:10:38;8.37;;;4.67;;
52480;SDS011;38393;52.404;13.532;2023-05-10T05:13:03;6.27;;;3.73;;
52480;SDS011;38393;52.404;13.532;2023-05-10T05:15:29;6.70;;;3.73;;
52480;SDS011;38393;52.404;13.532;2023-05-10T05:17:55;8.40;;;4.20;;
52480;SDS011;38393;52.404;13.532;2023-05-10T05:20:20;6.43;;;3.93;;
52480;SDS011;38393;52.404;13.532;2023-05-10T05:22:46;10.00;;;4.07;;
52480;SDS011;38393;52.404;13.532;2023-05-10T05:25:11;6.33;;;3.73;;
52480;SDS011;38393;52.404;13.532;2023-05-10T05:27:37;9.57;;;4.40;;
52480;SDS011;38393;52.404;13.532;2023-05-10T05:30:03;6.00;;;3.33;;
52480;SDS011;38393;52.404;13.532;2023-05-10T05:32:29;9.57;;;4.07;;
52480;SDS011;38393;52.404;13.532;2023-05-10T05:34:55;7.33;;;3.83;;
52480;SDS011;38393;52.404;13.532;2023-05-10T05:37:20;5.80;;;3.60;;
52480;SDS011;38393;52.404;13.532;2023-05-10T05:39:46;4.87;;;3.37;;
52480;SDS011;38393;52.404;13.532;2023-05-10T05:42:12;5.10;;;3.60;;
52480;SDS011;38393;52.404;13.532;2023-05-10T05:44:38;6.83;;;4.03;;
52480;SDS011;38393;52.404;13.532;2023-05-10T05:47:04;8.00;;;3.50;;
52480;SDS011;38393;52.404;13.532;2023-05-10T05:49:30;6.53;;;3.50;;
52480;SDS011;38393;52.404;13.532;2023-05-10T05:52:02;7.43;;;3.80;;
52480;SDS011;38393;52.404;13.532;2023-05-10T05:54:28;6.20;;;3.10;;
52480;SDS011;38393;52.404;13.532;2023-05-10T05:56:57;4.70;;;3.13;;
52480;SDS011;38393;52.404;13.532;2023-05-10T05:59:24;5.17;;;2.87;;
52480;SDS011;38393;52.404;13.532;2023-05-10T06:01:49;5.77;;;3.30;;
52480;SDS011;38393;52.404;13.532;2023-05-10T06:04:15;4.60;;;3.00;;
52480;SDS011;38393;52.404;13.532;2023-05-10T06:06:41;5.70;;;3.40;;
52480;SDS011;38393;52.404;13.532;2023-05-10T06:09:07;4.40;;;2.93;;
52480;SDS011;38393;52.404;13.532;2023-05-10T06:11:33;7.83;;;3.20;;
52480;SDS011;38393;52.404;13.532;2023-05-10T06:13:59;5.40;;;2.90;;
52480;SDS011;38393;52.404;13.532;2023-05-10T06:16:25;5.77;;;3.40;;
52480;SDS011;38393;52.404;13.532;2023-05-10T06:18:50;5.17;;;2.90;;
52480;SDS011;38393;52.404;13.532;2023-05-10T06:21:16;5.33;;;2.87;;
52480;SDS011;38393;52.404;13.532;2023-05-10T06:23:42;7.07;;;2.90;;
52480;SDS011;38393;52.404;13.532;2023-05-10T06:26:07;6.03;;;3.50;;
52480;SDS011;38393;52.404;13.532;2023-05-10T06:28:33;4.73;;;2.63;;
52480;SDS011;38393;52.404;13.532;2023-05-10T06:30:59;4.07;;;2.57;;
52480;SDS011;38393;52.404;13.532;2023-05-10T06:33:24;6.53;;;2.70;;
52480;SDS011;38393;52.404;13.532;2023-05-10T06:35:50;4.47;;;2.70;;
52480;SDS011;38393;52.404;13.532;2023-05-10T06:38:16;4.53;;;3.00;;
52480;SDS011;38393;52.404;13.532;2023-05-10T06:40:42;5.23;;;2.80;;
52480;SDS011;38393;52.404;13.532;2023-05-10T06:43:07;4.57;;;2.47;;
52480;SDS011;38393;52.404;13.532;2023-05-10T06:45:33;3.90;;;2.33;;
52480;SDS011;38393;52.404;13.532;2023-05-10T06:47:58;5.97;;;2.57;;
52480;SDS011;38393;52.404;13.532;2023-05-10T06:50:24;4.10;;;2.63;;
52480;SDS011;38393;52.404;13.532;2023-05-10T06:52:50;6.00;;;2.53;;
52480;SDS011;38393;52.404;13.532;2023-05-10T06:55:15;5.80;;;2.60;;
52480;SDS011;38393;52.404;13.532;2023-05-10T06:57:41;4.87;;;2.33;;
52480;SDS011;38393;52.404;13.532;2023-05-10T07:00:06;5.63;;;2.40;;
52480;SDS011;38393;52.404;13.532;2023-05-10T07:02:32;5.40;;;2.60;;
52480;SDS011;38393;52.404;13.532;2023-05-10T07:04:58;4.07;;;2.67;;
52480;SDS011;38393;52.404;13.532;2023-05-10T07:07:23;4.87;;;2.43;;
52480;SDS011;38393;52.404;13.532;2023-05-10T07:09:48;4.53;;;2.30;;
52480;SDS011;38393;52.404;13.532;2023-05-10T07:12:15;6.27;;;2.83;;
52480;SDS011;38393;52.404;13.532;2023-05-10T07:14:40;4.50;;;2.37;;
52480;SDS011;38393;52.404;13.532;2023-05-10T07:17:05;5.17;;;2.50;;
52480;SDS011;38393;52.404;13.532;2023-05-10T07:19:31;4.07;;;2.27;;
52480;SDS011;38393;52.404;13.532;2023-05-10T07:21:57;3.30;;;2.20;;
52480;SDS011;38393;52.404;13.532;2023-05-10T07:24:23;4.03;;;2.38;;
52480;SDS011;38393;52.404;13.532;2023-05-10T07:26:49;4.65;;;2.50;;
52480;SDS011;38393;52.404;13.532;2023-05-10T07:29:14;7.53;;;3.27;;
52480;SDS011;38393;52.404;13.532;2023-05-10T07:31:40;3.92;;;2.42;;
52480;SDS011;38393;52.404;13.532;2023-05-10T07:34:07;3.92;;;2.50;;
52480;SDS011;38393;52.404;13.532;2023-05-10T07:36:33;3.72;;;2.20;;
52480;SDS011;38393;52.404;13.532;2023-05-10T07:38:59;3.20;;;2.20;;
52480;SDS011;38393;52.404;13.532;2023-05-10T07:41:24;4.72;;;2.25;;
52480;SDS011;38393;52.404;13.532;2023-05-10T07:43:50;3.95;;;2.50;;
52480;SDS011;38393;52.404;13.532;2023-05-10T07:46:15;5.30;;;2.38;;
52480;SDS011;38393;52.404;13.532;2023-05-10T07:48:41;6.93;;;2.20;;
52480;SDS011;38393;52.404;13.532;2023-05-10T07:51:06;5.47;;;2.30;;
52480;SDS011;38393;52.404;13.532;2023-05-10T07:53:34;5.38;;;2.38;;
52480;SDS011;38393;52.404;13.532;2023-05-10T07:56:19;3.78;;;2.38;;
52480;SDS011;38393;52.404;13.532;2023-05-10T07:58:54;3.75;;;2.38;;
52480;SDS011;38393;52.404;13.532;2023-05-10T08:01:20;5.20;;;2.28;;
52480;SDS011;38393;52.404;13.532;2023-05-10T08:03:47;4.00;;;2.20;;
52480;SDS011;38393;52.404;13.532;2023-05-10T08:06:14;5.22;;;2.40;;
52480;SDS011;38393;52.404;13.532;2023-05-10T08:08:40;3.85;;;2.72;;
52480;SDS011;38393;52.404;13.532;2023-05-10T08:11:06;4.20;;;2.72;;
52480;SDS011;38393;52.404;13.532;2023-05-10T08:13:31;4.82;;;2.70;;
52480;SDS011;38393;52.404;13.532;2023-05-10T08:15:57;3.65;;;2.40;;
52480;SDS011;38393;52.404;13.532;2023-05-10T08:18:22;5.85;;;2.65;;
52480;SDS011;38393;52.404;13.532;2023-05-10T08:20:48;7.18;;;2.58;;
52480;SDS011;38393;52.404;13.532;2023-05-10T08:23:13;3.67;;;2.50;;
52480;SDS011;38393;52.404;13.532;2023-05-10T08:25:39;3.42;;;2.50;;
52480;SDS011;38393;52.404;13.532;2023-05-10T08:28:04;4.40;;;2.70;;
52480;SDS011;38393;52.404;13.532;2023-05-10T08:30:30;3.28;;;2.45;;
52480;SDS011;38393;52.404;13.532;2023-05-10T08:32:55;3.70;;;2.67;;
52480;SDS011;38393;52.404;13.532;2023-05-10T08:35:21;6.75;;;2.60;;
52480;SDS011;38393;52.404;13.532;2023-05-10T08:37:46;3.30;;;2.35;;
52480;SDS011;38393;52.404;13.532;2023-05-10T08:40:12;3.67;;;2.30;;
52480;SDS011;38393;52.404;13.532;2023-05-10T08:42:39;5.22;;;2.50;;
52480;SDS011;38393;52.404;13.532;2023-05-10T08:45:07;3.60;;;2.13;;
52480;SDS011;38393;52.404;13.532;2023-05-10T08:47:35;5.10;;;2.80;;
52480;SDS011;38393;52.404;13.532;2023-05-10T08:50:02;4.15;;;2.40;;
52480;SDS011;38393;52.404;13.532;2023-05-10T08:52:28;6.13;;;2.65;;
52480;SDS011;38393;52.404;13.532;2023-05-10T08:54:55;3.53;;;2.58;;
52480;SDS011;38393;52.404;13.532;2023-05-10T08:57:21;4.07;;;2.78;;
52480;SDS011;38393;52.404;13.532;2023-05-10T08:59:46;3.92;;;2.42;;
52480;SDS011;38393;52.404;13.532;2023-05-10T09:02:12;3.33;;;2.53;;
52480;SDS011;38393;52.404;13.532;2023-05-10T09:04:38;4.50;;;2.42;;
52480;SDS011;38393;52.404;13.532;2023-05-10T09:07:04;4.72;;;2.30;;
52480;SDS011;38393;52.404;13.532;2023-05-10T09:09:31;5.28;;;2.85;;
52480;SDS011;38393;52.404;13.532;2023-05-10T09:11:56;4.40;;;2.60;;
52480;SDS011;38393;52.404;13.532;2023-05-10T09:14:23;4.57;;;2.70;;
52480;SDS011;38393;52.404;13.532;2023-05-10T09:16:49;4.30;;;2.70;;
52480;SDS011;38393;52.404;13.532;2023-05-10T09:19:15;5.20;;;2.50;;
52480;SDS011;38393;52.404;13.532;2023-05-10T09:21:40;3.75;;;2.50;;
52480;SDS011;38393;52.404;13.532;2023-05-10T09:24:07;3.38;;;2.40;;
52480;SDS011;38393;52.404;13.532;2023-05-10T09:26:33;5.47;;;2.67;;
52480;SDS011;38393;52.404;13.532;2023-05-10T09:29:00;3.85;;;2.60;;
52480;SDS011;38393;52.404;13.532;2023-05-10T09:31:46;4.75;;;2.58;;
52480;SDS011;38393;52.404;13.532;2023-05-10T09:34:16;4.97;;;2.60;;
52480;SDS011;38393;52.404;13.532;2023-05-10T09:36:50;3.35;;;2.40;;
52480;SDS011;38393;52.404;13.532;2023-05-10T09:39:16;3.75;;;2.58;;
52480;SDS011;38393;52.404;13.532;2023-05-10T09:41:42;6.78;;;2.60;;
52480;SDS011;38393;52.404;13.532;2023-05-10T09:44:08;3.50;;;2.67;;
52480;SDS011;38393;52.404;13.532;2023-05-10T09:46:34;3.30;;;2.38;;
52480;SDS011;38393;52.404;13.532;2023-05-10T09:49:01;3.80;;;2.50;;
52480;SDS011;38393;52.404;13.532;2023-05-10T09:51:26;3.50;;;2.60;;
52480;SDS011;38393;52.404;13.532;2023-05-10T09:54:10;3.92;;;2.60;;
52480;SDS011;38393;52.404;13.532;2023-05-10T09:56:37;3.53;;;2.58;;
52480;SDS011;38393;52.404;13.532;2023-05-10T09:59:05;5.53;;;2.60;;
52480;SDS011;38393;52.404;13.532;2023-05-10T10:01:31;3.45;;;2.33;;
52480;SDS011;38393;52.404;13.532;2023-05-10T10:03:57;3.17;;;2.58;;
52480;SDS011;38393;52.404;13.532;2023-05-10T10:06:23;4.75;;;2.60;;
52480;SDS011;38393;52.404;13.532;2023-05-10T10:08:50;4.32;;;2.47;;
52480;SDS011;38393;52.404;13.532;2023-05-10T10:11:16;3.30;;;2.40;;
52480;SDS011;38393;52.404;13.532;2023-05-10T10:13:41;4.82;;;2.53;;
52480;SDS011;38393;52.404;13.532;2023-05-10T10:16:08;5.00;;;2.45;;
52480;SDS011;38393;52.404;13.532;2023-05-10T10:18:33;2.60;;;2.20;;
52480;SDS011;38393;52.404;13.532;2023-05-10T10:21:04;3.22;;;2.33;;
52480;SDS011;38393;52.404;13.532;2023-05-10T10:23:31;5.13;;;2.33;;
52480;SDS011;38393;52.404;13.532;2023-05-10T10:25:57;3.33;;;2.60;;
52480;SDS011;38393;52.404;13.532;2023-05-10T10:28:31;4.05;;;2.38;;
52480;SDS011;38393;52.404;13.532;2023-05-10T10:31:13;4.13;;;2.75;;
52480;SDS011;38393;52.404;13.532;2023-05-10T10:36:20;4.20;;;2.42;;
52480;SDS011;38393;52.404;13.532;2023-05-10T10:41:27;2.67;;;2.08;;
52480;SDS011;38393;52.404;13.532;2023-05-10T10:49:23;4.78;;;2.60;;
52480;SDS011;38393;52.404;13.532;2023-05-10T10:57:50;2.95;;;2.22;;
52480;SDS011;38393;52.404;13.532;2023-05-10T11:00:32;3.83;;;2.30;;
52480;SDS011;38393;52.404;13.532;2023-05-10T11:05:41;2.92;;;2.50;;
52480;SDS011;38393;52.404;13.532;2023-05-10T11:08:18;3.92;;;2.38;;
52480;SDS011;38393;52.404;13.532;2023-05-10T11:13:34;2.88;;;1.95;;
52480;SDS011;38393;52.404;13.532;2023-05-10T11:19:08;4.80;;;2.55;;
52480;SDS011;38393;52.404;13.532;2023-05-10T11:21:45;4.25;;;2.10;;
52480;SDS011;38393;52.404;13.532;2023-05-10T11:24:14;3.25;;;1.98;;
52480;SDS011;38393;52.404;13.532;2023-05-10T11:26:41;4.20;;;2.40;;
52480;SDS011;38393;52.404;13.532;2023-05-10T11:29:07;3.55;;;2.20;;
52480;SDS011;38393;52.404;13.532;2023-05-10T11:31:33;3.95;;;2.10;;
52480;SDS011;38393;52.404;13.532;2023-05-10T11:33:59;4.85;;;2.10;;
52480;SDS011;38393;52.404;13.532;2023-05-10T11:36:29;2.83;;;2.10;;
52480;SDS011;38393;52.404;13.532;2023-05-10T11:38:58;2.30;;;2.00;;
52480;SDS011;38393;52.404;13.532;2023-05-10T11:41:24;3.72;;;2.40;;
52480;SDS011;38393;52.404;13.532;2023-05-10T11:43:50;3.42;;;2.17;;
52480;SDS011;38393;52.404;13.532;2023-05-10T11:46:19;3.80;;;2.30;;
52480;SDS011;38393;52.404;13.532;2023-05-10T11:48:46;5.53;;;2.50;;
52480;SDS011;38393;52.404;13.532;2023-05-10T11:51:19;4.35;;;2.42;;
52480;SDS011;38393;52.404;13.532;2023-05-10T11:53:49;37.20;;;8.25;;
52480;SDS011;38393;52.404;13.532;2023-05-10T11:56:19;0.85;;;0.60;;
52480;SDS011;38393;52.404;13.532;2023-05-10T11:58:51;0.10;;;0.10;;
52480;SDS011;38393;52.404;13.532;2023-05-10T12:01:21;0.10;;;0.10;;
52480;SDS011;38393;52.404;13.532;2023-05-10T12:03:47;0.10;;;0.10;;
52480;SDS011;38393;52.404;13.532;2023-05-10T12:06:14;0.10;;;0.10;;
52480;SDS011;38393;52.404;13.532;2023-05-10T12:08:43;0.20;;;0.20;;
52480;SDS011;38393;52.404;13.532;2023-05-10T12:11:11;0.10;;;0.10;;
52480;SDS011;38393;52.404;13.532;2023-05-10T12:13:40;0.17;;;0.17;;
52480;SDS011;38393;52.404;13.532;2023-05-10T12:16:18;0.10;;;0.10;;
52480;SDS011;38393;52.404;13.532;2023-05-10T12:18:48;0.40;;;0.40;;
52480;SDS011;38393;52.404;13.532;2023-05-10T12:21:14;0.20;;;0.20;;
52480;SDS011;38393;52.404;13.532;2023-05-10T12:23:40;0.10;;;0.10;;
52480;SDS011;38393;52.404;13.532;2023-05-10T12:26:06;0.20;;;0.20;;
52480;SDS011;38393;52.404;13.532;2023-05-10T12:28:34;0.13;;;0.13;;
52480;SDS011;38393;52.404;13.532;2023-05-10T12:31:00;0.20;;;0.20;;
52480;SDS011;38393;52.404;13.532;2023-05-10T12:33:27;0.20;;;0.20;;
52480;SDS011;38393;52.404;13.532;2023-05-10T12:35:59;0.20;;;0.20;;
52480;SDS011;38393;52.404;13.532;2023-05-10T12:38:26;0.20;;;0.20;;
52480;SDS011;38393;52.404;13.532;2023-05-10T12:41:01;0.10;;;0.10;;
52480;SDS011;38393;52.404;13.532;2023-05-10T12:43:27;0.47;;;0.45;;
52480;SDS011;38393;52.404;13.532;2023-05-10T12:45:53;0.20;;;0.20;;
52480;SDS011;38393;52.404;13.532;2023-05-10T12:48:19;0.20;;;0.20;;
52480;SDS011;38393;52.404;13.532;2023-05-10T12:50:45;0.10;;;0.10;;
52480;SDS011;38393;52.404;13.532;2023-05-10T12:53:12;0.30;;;0.30;;
52480;SDS011;38393;52.404;13.532;2023-05-10T12:55:40;0.10;;;0.10;;
52480;SDS011;38393;52.404;13.532;2023-05-10T12:58:09;0.10;;;0.10;;
52480;SDS011;38393;52.404;13.532;2023-05-10T13:00:35;0.20;;;0.20;;
52480;SDS011;38393;52.404;13.532;2023-05-10T13:03:02;0.20;;;0.20;;
52480;SDS011;38393;52.404;13.532;2023-05-10T13:05:30;0.13;;;0.13;;
52480;SDS011;38393;52.404;13.532;2023-05-10T13:07:59;0.20;;;0.20;;
52480;SDS011;38393;52.404;13.532;2023-05-10T13:10:24;0.10;;;0.10;;
52480;SDS011;38393;52.404;13.532;2023-05-10T13:12:50;0.10;;;0.10;;
52480;SDS011;38393;52.404;13.532;2023-05-10T13:15:16;0.15;;;0.15;;
52480;SDS011;38393;52.404;13.532;2023-05-10T13:17:42;0.10;;;0.10;;
52480;SDS011;38393;52.404;13.532;2023-05-10T13:20:07;0.20;;;0.20;;
52480;SDS011;38393;52.404;13.532;2023-05-10T13:22:34;0.20;;;0.20;;
52480;SDS011;38393;52.404;13.532;2023-05-10T13:25:00;0.17;;;0.17;;
52480;SDS011;38393;52.404;13.532;2023-05-10T13:27:25;0.17;;;0.17;;
52480;SDS011;38393;52.404;13.532;2023-05-10T13:29:51;0.10;;;0.10;;
52480;SDS011;38393;52.404;13.532;2023-05-10T13:32:16;0.10;;;0.10;;
52480;SDS011;38393;52.404;13.532;2023-05-10T13:34:42;0.20;;;0.20;;
52480;SDS011;38393;52.404;13.532;2023-05-10T13:37:07;0.10;;;0.10;;
52480;SDS011;38393;52.404;13.532;2023-05-10T13:39:32;0.10;;;0.10;;
52480;SDS011;38393;52.404;13.532;2023-05-10T13:41:59;0.15;;;0.15;;
52480;SDS011;38393;52.404;13.532;2023-05-10T13:44:25;0.13;;;0.13;;
52480;SDS011;38393;52.404;13.532;2023-05-10T13:46:50;0.10;;;0.10;;
52480;SDS011;38393;52.404;13.532;2023-05-10T13:49:16;0.20;;;0.20;;
52480;SDS011;38393;52.404;13.532;2023-05-10T13:51:42;0.10;;;0.10;;
52480;SDS011;38393;52.404;13.532;2023-05-10T13:54:08;0.10;;;0.10;;
52480;SDS011;38393;52.404;13.532;2023-05-10T13:56:33;0.10;;;0.10;;
52480;SDS011;38393;52.404;13.532;2023-05-10T13:58:59;0.10;;;0.10;;
52480;SDS011;38393;52.404;13.532;2023-05-10T14:01:25;0.20;;;0.20;;
52480;SDS011;38393;52.404;13.532;2023-05-10T14:03:50;2.30;;;2.10;;
52480;SDS011;38393;52.404;13.532;2023-05-10T14:06:16;0.10;;;0.10;;
52480;SDS011;38393;52.404;13.532;2023-05-10T14:08:41;0.20;;;0.20;;
52480;SDS011;38393;52.404;13.532;2023-05-10T14:11:07;0.10;;;0.10;;
52480;SDS011;38393;52.404;13.532;2023-05-10T14:13:32;0.13;;;0.13;;
52480;SDS011;38393;52.404;13.532;2023-05-10T14:15:57;0.10;;;0.10;;
52480;SDS011;38393;52.404;13.532;2023-05-10T14:18:25;0.20;;;0.20;;
52480;SDS011;38393;52.404;13.532;2023-05-10T14:20:51;0.13;;;0.13;;
52480;SDS011;38393;52.404;13.532;2023-05-10T14:23:17;0.20;;;0.20;;
52480;SDS011;38393;52.404;13.532;2023-05-10T14:25:44;0.17;;;0.17;;
52480;SDS011;38393;52.404;13.532;2023-05-10T14:28:09;0.30;;;0.30;;
52480;SDS011;38393;52.404;13.532;2023-05-10T14:30:35;0.20;;;0.20;;
52480;SDS011;38393;52.404;13.532;2023-05-10T14:33:01;0.10;;;0.10;;
52480;SDS011;38393;52.404;13.532;2023-05-10T14:35:27;0.20;;;0.20;;
52480;SDS011;38393;52.404;13.532;2023-05-10T14:37:53;0.20;;;0.20;;
52480;SDS011;38393;52.404;13.532;2023-05-10T14:40:19;0.10;;;0.10;;
52480;SDS011;38393;52.404;13.532;2023-05-10T14:42:45;0.20;;;0.20;;
52480;SDS011;38393;52.404;13.532;2023-05-10T14:45:11;0.20;;;0.20;;
52480;SDS011;38393;52.404;13.532;2023-05-10T14:47:37;0.15;;;0.15;;
52480;SDS011;38393;52.404;13.532;2023-05-10T14:50:02;0.30;;;0.30;;
52480;SDS011;38393;52.404;13.532;2023-05-10T14:52:28;0.20;;;0.20;;
52480;SDS011;38393;52.404;13.532;2023-05-10T14:54:54;0.20;;;0.20;;
52480;SDS011;38393;52.404;13.532;2023-05-10T14:57:19;0.10;;;0.10;;
52480;SDS011;38393;52.404;13.532;2023-05-10T14:59:45;0.20;;;0.20;;
52480;SDS011;38393;52.404;13.532;2023-05-10T15:02:10;0.17;;;0.17;;
52480;SDS011;38393;52.404;13.532;2023-05-10T15:04:36;0.13;;;0.13;;
52480;SDS011;38393;52.404;13.532;2023-05-10T15:07:01;0.20;;;0.20;;
52480;SDS011;38393;52.404;13.532;2023-05-10T15:09:27;0.20;;;0.20;;
52480;SDS011;38393;52.404;13.532;2023-05-10T15:11:53;0.20;;;0.20;;